sensor_id;sensor_type;location;lat;lon;timestamp;pressure;altitude;pressure_sealevel;temperature;humidity
58243;BME280;50118;53.232;8.252;2022-09-03T00:02:13;101451.78;;;13.45;72.40
58243;BME280;50118;53.232;8.252;2022-09-03T00:07:33;101457.16;;;13.26;73.67
58243;BME280;50118;53.232;8.252;2022-09-03T00:10:07;101458.59;;;13.20;73.46
58243;BME280;50118;53.232;8.252;2022-09-03T00:12:37;101454.97;;;13.12;73.99
58243;BME280;50118;53.232;8.252;2022-09-03T00:15:07;101466.25;;;12.96;75.31
58243;BME280;50118;53.232;8.252;2022-09-03T00:17:38;101462.03;;;12.93;75.48
58243;BME280;50118;53.232;8.252;2022-09-03T00:20:11;101453.03;;;12.84;76.23
58243;BME280;50118;53.232;8.252;2022-09-03T00:22:42;101452.22;;;12.84;75.89
58243;BME280;50118;53.232;8.252;2022-09-03T00:25:14;101455.84;;;12.83;75.93
58243;BME280;50118;53.232;8.252;2022-09-03T00:27:44;101457.13;;;12.79;76.23
58243;BME280;50118;53.232;8.252;2022-09-03T00:30:16;101464.31;;;12.68;76.59
58243;BME280;50118;53.232;8.252;2022-09-03T00:32:49;101458.97;;;12.68;76.55
58243;BME280;50118;53.232;8.252;2022-09-03T00:35:43;101456.44;;;12.67;76.78
58243;BME280;50118;53.232;8.252;2022-09-03T00:38:07;101451.94;;;12.67;76.16
58243;BME280;50118;53.232;8.252;2022-09-03T00:48:35;101451.09;;;12.57;77.09
58243;BME280;50118;53.232;8.252;2022-09-03T01:01:52;101450.53;;;12.24;78.46
58243;BME280;50118;53.232;8.252;2022-09-03T01:07:27;101447.13;;;12.22;78.95
58243;BME280;50118;53.232;8.252;2022-09-03T01:12:39;101448.13;;;12.21;78.91
58243;BME280;50118;53.232;8.252;2022-09-03T01:29:23;101453.84;;;12.07;79.34
58243;BME280;50118;53.232;8.252;2022-09-03T01:32:12;101445.41;;;12.02;79.47
58243;BME280;50118;53.232;8.252;2022-09-03T01:38:08;101453.50;;;11.90;80.34
58243;BME280;50118;53.232;8.252;2022-09-03T01:40:41;101455.44;;;11.88;80.24
58243;BME280;50118;53.232;8.252;2022-09-03T01:43:29;101462.25;;;11.92;80.23
58243;BME280;50118;53.232;8.252;2022-09-03T01:46:08;101455.22;;;11.91;80.42
58243;BME280;50118;53.232;8.252;2022-09-03T01:51:22;101458.31;;;11.96;79.81
58243;BME280;50118;53.232;8.252;2022-09-03T01:54:22;101460.56;;;11.91;80.17
58243;BME280;50118;53.232;8.252;2022-09-03T01:57:34;101450.97;;;11.89;80.64
58243;BME280;50118;53.232;8.252;2022-09-03T02:02:31;101450.56;;;11.93;80.73
58243;BME280;50118;53.232;8.252;2022-09-03T02:08:05;101455.19;;;11.82;81.48
58243;BME280;50118;53.232;8.252;2022-09-03T02:10:42;101446.72;;;11.76;81.58
58243;BME280;50118;53.232;8.252;2022-09-03T02:13:14;101455.75;;;11.85;81.24
58243;BME280;50118;53.232;8.252;2022-09-03T02:15:43;101459.13;;;11.87;80.99
58243;BME280;50118;53.232;8.252;2022-09-03T02:18:22;101450.66;;;11.82;80.79
58243;BME280;50118;53.232;8.252;2022-09-03T02:20:51;101449.09;;;11.80;80.32
58243;BME280;50118;53.232;8.252;2022-09-03T02:23:17;101447.84;;;11.74;81.50
58243;BME280;50118;53.232;8.252;2022-09-03T02:25:56;101449.88;;;11.61;82.57
58243;BME280;50118;53.232;8.252;2022-09-03T02:28:22;101458.56;;;11.53;83.18
58243;BME280;50118;53.232;8.252;2022-09-03T02:30:47;101451.22;;;11.45;82.99
58243;BME280;50118;53.232;8.252;2022-09-03T02:33:14;101456.44;;;11.47;82.94
58243;BME280;50118;53.232;8.252;2022-09-03T02:35:41;101458.78;;;11.40;83.46
58243;BME280;50118;53.232;8.252;2022-09-03T02:38:16;101448.50;;;11.35;84.28
58243;BME280;50118;53.232;8.252;2022-09-03T02:40:41;101454.72;;;11.36;83.59
58243;BME280;50118;53.232;8.252;2022-09-03T02:43:10;101451.31;;;11.34;84.18
58243;BME280;50118;53.232;8.252;2022-09-03T02:45:41;101454.66;;;11.26;84.29
58243;BME280;50118;53.232;8.252;2022-09-03T02:48:10;101454.91;;;11.23;85.50
58243;BME280;50118;53.232;8.252;2022-09-03T02:50:41;101459.16;;;11.26;85.30
58243;BME280;50118;53.232;8.252;2022-09-03T02:53:07;101463.34;;;11.28;85.24
58243;BME280;50118;53.232;8.252;2022-09-03T02:55:33;101449.63;;;11.33;85.10
58243;BME280;50118;53.232;8.252;2022-09-03T02:57:59;101456.94;;;11.31;84.65
58243;BME280;50118;53.232;8.252;2022-09-03T03:00:25;101457.44;;;11.25;85.10
58243;BME280;50118;53.232;8.252;2022-09-03T03:02:54;101458.69;;;11.20;84.83
58243;BME280;50118;53.232;8.252;2022-09-03T03:05:34;101462.06;;;11.23;85.07
58243;BME280;50118;53.232;8.252;2022-09-03T03:08:02;101459.09;;;11.16;84.04
58243;BME280;50118;53.232;8.252;2022-09-03T03:10:27;101455.75;;;11.24;85.09
58243;BME280;50118;53.232;8.252;2022-09-03T03:12:53;101456.28;;;11.17;84.74
58243;BME280;50118;53.232;8.252;2022-09-03T03:15:18;101452.47;;;11.10;86.11
58243;BME280;50118;53.232;8.252;2022-09-03T03:17:44;101455.13;;;11.10;85.69
58243;BME280;50118;53.232;8.252;2022-09-03T03:20:10;101458.75;;;11.09;85.47
58243;BME280;50118;53.232;8.252;2022-09-03T03:22:35;101460.72;;;11.07;86.39
58243;BME280;50118;53.232;8.252;2022-09-03T03:25:02;101463.13;;;11.10;85.43
58243;BME280;50118;53.232;8.252;2022-09-03T03:27:27;101460.47;;;11.10;85.95
58243;BME280;50118;53.232;8.252;2022-09-03T03:29:52;101462.38;;;11.08;85.80
58243;BME280;50118;53.232;8.252;2022-09-03T03:32:18;101460.97;;;11.04;86.50
58243;BME280;50118;53.232;8.252;2022-09-03T03:34:44;101455.66;;;11.04;86.19
58243;BME280;50118;53.232;8.252;2022-09-03T03:37:09;101460.06;;;10.94;86.51
58243;BME280;50118;53.232;8.252;2022-09-03T03:39:35;101461.44;;;10.88;87.64
58243;BME280;50118;53.232;8.252;2022-09-03T03:42:00;101449.66;;;10.91;87.36
58243;BME280;50118;53.232;8.252;2022-09-03T03:44:25;101455.97;;;10.90;87.24
58243;BME280;50118;53.232;8.252;2022-09-03T03:46:51;101457.66;;;10.91;87.18
58243;BME280;50118;53.232;8.252;2022-09-03T03:49:16;101453.81;;;10.83;87.10
58243;BME280;50118;53.232;8.252;2022-09-03T03:51:41;101457.19;;;10.86;87.07
58243;BME280;50118;53.232;8.252;2022-09-03T03:54:07;101456.63;;;10.82;88.04
58243;BME280;50118;53.232;8.252;2022-09-03T03:56:33;101452.66;;;10.76;87.85
58243;BME280;50118;53.232;8.252;2022-09-03T03:58:59;101457.78;;;10.68;88.71
58243;BME280;50118;53.232;8.252;2022-09-03T04:01:25;101455.03;;;10.58;89.18
58243;BME280;50118;53.232;8.252;2022-09-03T04:03:54;101456.16;;;10.56;89.78
58243;BME280;50118;53.232;8.252;2022-09-03T04:06:20;101459.69;;;10.45;90.24
58243;BME280;50118;53.232;8.252;2022-09-03T04:08:47;101457.91;;;10.34;91.49
58243;BME280;50118;53.232;8.252;2022-09-03T04:11:16;101452.59;;;10.34;91.61
58243;BME280;50118;53.232;8.252;2022-09-03T04:13:43;101457.91;;;10.23;91.91
58243;BME280;50118;53.232;8.252;2022-09-03T04:16:15;101459.97;;;10.19;92.43
58243;BME280;50118;53.232;8.252;2022-09-03T04:18:42;101455.47;;;10.20;91.98
58243;BME280;50118;53.232;8.252;2022-09-03T04:21:13;101456.25;;;10.10;93.37
58243;BME280;50118;53.232;8.252;2022-09-03T04:23:41;101454.53;;;10.09;92.74
58243;BME280;50118;53.232;8.252;2022-09-03T04:26:09;101467.38;;;10.04;93.65
58243;BME280;50118;53.232;8.252;2022-09-03T04:28:34;101451.69;;;10.01;94.10
58243;BME280;50118;53.232;8.252;2022-09-03T04:31:01;101462.69;;;10.08;93.17
58243;BME280;50118;53.232;8.252;2022-09-03T04:33:27;101466.31;;;10.07;92.84
58243;BME280;50118;53.232;8.252;2022-09-03T04:36:01;101457.25;;;9.98;93.73
58243;BME280;50118;53.232;8.252;2022-09-03T04:38:28;101460.16;;;9.95;93.82
58243;BME280;50118;53.232;8.252;2022-09-03T04:40:55;101461.59;;;9.99;94.25
58243;BME280;50118;53.232;8.252;2022-09-03T04:43:21;101468.59;;;10.00;93.65
58243;BME280;50118;53.232;8.252;2022-09-03T04:45:46;101469.56;;;9.99;93.36
58243;BME280;50118;53.232;8.252;2022-09-03T04:48:12;101463.88;;;9.93;94.10
58243;BME280;50118;53.232;8.252;2022-09-03T04:50:37;101457.50;;;9.84;94.75
58243;BME280;50118;53.232;8.252;2022-09-03T04:53:04;101455.69;;;9.84;94.60
58243;BME280;50118;53.232;8.252;2022-09-03T04:55:34;101443.59;;;9.91;94.03
58243;BME280;50118;53.232;8.252;2022-09-03T04:57:59;101449.75;;;9.92;94.22
58243;BME280;50118;53.232;8.252;2022-09-03T05:00:25;101444.78;;;9.99;94.03
58243;BME280;50118;53.232;8.252;2022-09-03T05:02:50;101446.09;;;10.04;93.41
58243;BME280;50118;53.232;8.252;2022-09-03T05:05:17;101443.88;;;10.09;93.75
58243;BME280;50118;53.232;8.252;2022-09-03T05:07:42;101447.31;;;10.12;93.36
58243;BME280;50118;53.232;8.252;2022-09-03T05:10:10;101457.69;;;10.15;93.46
58243;BME280;50118;53.232;8.252;2022-09-03T05:12:56;101446.44;;;10.11;93.40
58243;BME280;50118;53.232;8.252;2022-09-03T05:15:21;101455.00;;;10.26;93.05
58243;BME280;50118;53.232;8.252;2022-09-03T05:17:47;101457.41;;;10.40;91.78
58243;BME280;50118;53.232;8.252;2022-09-03T05:20:12;101457.13;;;10.43;91.76
58243;BME280;50118;53.232;8.252;2022-09-03T05:22:39;101456.72;;;10.59;90.86
58243;BME280;50118;53.232;8.252;2022-09-03T05:25:04;101457.97;;;10.76;89.88
58243;BME280;50118;53.232;8.252;2022-09-03T05:27:30;101460.56;;;10.88;88.77
58243;BME280;50118;53.232;8.252;2022-09-03T05:29:56;101454.69;;;11.05;87.98
58243;BME280;50118;53.232;8.252;2022-09-03T05:32:21;101451.91;;;11.16;86.87
58243;BME280;50118;53.232;8.252;2022-09-03T05:34:47;101452.75;;;11.38;86.14
58243;BME280;50118;53.232;8.252;2022-09-03T05:37:12;101452.66;;;11.49;85.41
58243;BME280;50118;53.232;8.252;2022-09-03T05:39:38;101454.31;;;11.71;83.67
58243;BME280;50118;53.232;8.252;2022-09-03T05:42:03;101451.09;;;11.87;82.45
58243;BME280;50118;53.232;8.252;2022-09-03T05:44:29;101451.31;;;11.95;82.52
58243;BME280;50118;53.232;8.252;2022-09-03T05:46:54;101440.34;;;12.08;82.57
58243;BME280;50118;53.232;8.252;2022-09-03T05:49:20;101439.53;;;12.27;80.53
58243;BME280;50118;53.232;8.252;2022-09-03T05:51:45;101431.09;;;12.32;81.01
58243;BME280;50118;53.232;8.252;2022-09-03T05:54:11;101433.94;;;12.50;80.14
58243;BME280;50118;53.232;8.252;2022-09-03T05:56:38;101443.75;;;12.59;78.76
58243;BME280;50118;53.232;8.252;2022-09-03T05:59:08;101441.78;;;12.61;79.02
58243;BME280;50118;53.232;8.252;2022-09-03T06:01:35;101438.97;;;12.73;78.45
58243;BME280;50118;53.232;8.252;2022-09-03T06:04:06;101437.53;;;12.98;76.62
58243;BME280;50118;53.232;8.252;2022-09-03T06:06:34;101435.97;;;13.05;76.69
58243;BME280;50118;53.232;8.252;2022-09-03T06:09:11;101443.53;;;13.19;75.89
58243;BME280;50118;53.232;8.252;2022-09-03T06:11:41;101432.66;;;13.31;75.08
58243;BME280;50118;53.232;8.252;2022-09-03T06:14:09;101441.41;;;13.33;75.43
58243;BME280;50118;53.232;8.252;2022-09-03T06:16:42;101436.44;;;13.48;73.70
58243;BME280;50118;53.232;8.252;2022-09-03T06:19:09;101436.28;;;13.49;74.30
58243;BME280;50118;53.232;8.252;2022-09-03T06:21:36;101443.94;;;13.72;73.38
58243;BME280;50118;53.232;8.252;2022-09-03T06:24:04;101443.28;;;13.88;72.18
58243;BME280;50118;53.232;8.252;2022-09-03T06:26:29;101443.75;;;14.01;72.60
58243;BME280;50118;53.232;8.252;2022-09-03T06:28:55;101448.69;;;14.24;70.57
58243;BME280;50118;53.232;8.252;2022-09-03T06:31:21;101434.69;;;14.66;69.03
58243;BME280;50118;53.232;8.252;2022-09-03T06:33:50;101437.34;;;15.10;66.42
58243;BME280;50118;53.232;8.252;2022-09-03T06:36:18;101440.09;;;15.18;65.20
58243;BME280;50118;53.232;8.252;2022-09-03T06:38:44;101441.34;;;15.32;65.59
58243;BME280;50118;53.232;8.252;2022-09-03T06:41:15;101436.94;;;15.57;63.83
58243;BME280;50118;53.232;8.252;2022-09-03T06:43:46;101426.56;;;15.62;63.01
58243;BME280;50118;53.232;8.252;2022-09-03T06:46:15;101437.78;;;15.84;61.95
58243;BME280;50118;53.232;8.252;2022-09-03T06:48:41;101428.78;;;16.10;61.81
58243;BME280;50118;53.232;8.252;2022-09-03T06:51:09;101439.22;;;16.46;60.92
58243;BME280;50118;53.232;8.252;2022-09-03T06:53:37;101427.06;;;16.09;61.14
58243;BME280;50118;53.232;8.252;2022-09-03T06:56:11;101429.63;;;16.27;61.40
58243;BME280;50118;53.232;8.252;2022-09-03T06:58:39;101429.91;;;15.91;62.25
58243;BME280;50118;53.232;8.252;2022-09-03T07:01:13;101438.13;;;15.89;61.93
58243;BME280;50118;53.232;8.252;2022-09-03T07:03:40;101425.09;;;16.11;61.52
58243;BME280;50118;53.232;8.252;2022-09-03T07:06:08;101439.22;;;16.46;61.20
58243;BME280;50118;53.232;8.252;2022-09-03T07:08:34;101435.81;;;16.19;61.30
58243;BME280;50118;53.232;8.252;2022-09-03T07:11:01;101435.66;;;16.04;61.01
58243;BME280;50118;53.232;8.252;2022-09-03T07:13:42;101437.16;;;16.06;61.08
58243;BME280;50118;53.232;8.252;2022-09-03T07:16:31;101439.19;;;16.29;60.77
58243;BME280;50118;53.232;8.252;2022-09-03T07:18:56;101432.03;;;16.38;60.05
58243;BME280;50118;53.232;8.252;2022-09-03T07:21:24;101436.56;;;17.11;58.03
58243;BME280;50118;53.232;8.252;2022-09-03T07:23:50;101433.81;;;17.20;57.04
58243;BME280;50118;53.232;8.252;2022-09-03T07:26:37;101433.72;;;16.88;58.12
58243;BME280;50118;53.232;8.252;2022-09-03T07:29:04;101438.59;;;17.01;58.04
58243;BME280;50118;53.232;8.252;2022-09-03T07:31:41;101425.53;;;17.38;56.91
58243;BME280;50118;53.232;8.252;2022-09-03T07:34:09;101421.59;;;17.57;56.16
58243;BME280;50118;53.232;8.252;2022-09-03T07:36:43;101430.88;;;17.85;55.44
58243;BME280;50118;53.232;8.252;2022-09-03T07:39:12;101433.91;;;17.51;56.05
58243;BME280;50118;53.232;8.252;2022-09-03T07:41:39;101435.06;;;17.48;55.70
58243;BME280;50118;53.232;8.252;2022-09-03T07:44:09;101432.47;;;17.24;57.56
58243;BME280;50118;53.232;8.252;2022-09-03T07:46:36;101426.81;;;17.50;56.92
58243;BME280;50118;53.232;8.252;2022-09-03T07:49:03;101420.72;;;17.25;57.48
58243;BME280;50118;53.232;8.252;2022-09-03T07:51:31;101417.75;;;17.82;55.50
58243;BME280;50118;53.232;8.252;2022-09-03T07:57:09;101417.28;;;17.39;56.60
58243;BME280;50118;53.232;8.252;2022-09-03T07:59:34;101418.97;;;17.80;55.33
58243;BME280;50118;53.232;8.252;2022-09-03T08:02:00;101418.28;;;18.17;53.64
58243;BME280;50118;53.232;8.252;2022-09-03T08:10:11;101429.06;;;18.17;54.79
58243;BME280;50118;53.232;8.252;2022-09-03T08:12:38;101438.94;;;18.02;54.97
58243;BME280;50118;53.232;8.252;2022-09-03T08:15:03;101429.50;;;17.98;54.68
58243;BME280;50118;53.232;8.252;2022-09-03T08:17:29;101438.53;;;17.73;55.31
58243;BME280;50118;53.232;8.252;2022-09-03T08:19:55;101434.72;;;17.99;54.98
58243;BME280;50118;53.232;8.252;2022-09-03T08:22:23;101434.88;;;18.29;53.82
58243;BME280;50118;53.232;8.252;2022-09-03T08:24:50;101427.09;;;18.72;52.60
58243;BME280;50118;53.232;8.252;2022-09-03T08:27:18;101430.50;;;18.51;53.36
58243;BME280;50118;53.232;8.252;2022-09-03T08:29:47;101435.78;;;18.44;53.63
58243;BME280;50118;53.232;8.252;2022-09-03T08:32:16;101428.56;;;18.83;51.81
58243;BME280;50118;53.232;8.252;2022-09-03T08:34:54;101419.44;;;18.84;52.09
58243;BME280;50118;53.232;8.252;2022-09-03T08:37:20;101422.75;;;18.48;52.52
58243;BME280;50118;53.232;8.252;2022-09-03T08:39:53;101426.28;;;18.72;52.44
58243;BME280;50118;53.232;8.252;2022-09-03T08:48:28;101426.13;;;19.41;50.21
58243;BME280;50118;53.232;8.252;2022-09-03T08:50:56;101425.13;;;19.93;48.79
58243;BME280;50118;53.232;8.252;2022-09-03T08:56:48;101420.22;;;20.04;48.42
58243;BME280;50118;53.232;8.252;2022-09-03T08:59:24;101415.25;;;20.65;47.38
58243;BME280;50118;53.232;8.252;2022-09-03T09:02:23;101418.41;;;20.47;47.23
58243;BME280;50118;53.232;8.252;2022-09-03T09:10:35;101417.78;;;20.09;47.48
58243;BME280;50118;53.232;8.252;2022-09-03T09:23:31;101415.13;;;21.37;44.31
58243;BME280;50118;53.232;8.252;2022-09-03T09:26:00;101396.50;;;21.69;44.18
58243;BME280;50118;53.232;8.252;2022-09-03T09:28:34;101411.47;;;22.26;41.39
58243;BME280;50118;53.232;8.252;2022-09-03T09:31:02;101405.72;;;21.81;42.68
58243;BME280;50118;53.232;8.252;2022-09-03T09:33:29;101403.38;;;21.64;43.60
58243;BME280;50118;53.232;8.252;2022-09-03T09:36:06;101412.50;;;22.12;42.04
58243;BME280;50118;53.232;8.252;2022-09-03T09:38:35;101397.56;;;22.43;40.82
58243;BME280;50118;53.232;8.252;2022-09-03T09:41:27;101398.78;;;22.47;40.95
58243;BME280;50118;53.232;8.252;2022-09-03T09:44:00;101392.94;;;22.77;40.68
58243;BME280;50118;53.232;8.252;2022-09-03T09:46:34;101390.06;;;23.95;37.09
58243;BME280;50118;53.232;8.252;2022-09-03T09:49:01;101399.25;;;24.33;35.62
58243;BME280;50118;53.232;8.252;2022-09-03T09:51:29;101401.03;;;23.82;36.61
58243;BME280;50118;53.232;8.252;2022-09-03T09:54:11;101389.88;;;24.29;35.36
58243;BME280;50118;53.232;8.252;2022-09-03T09:56:37;101392.97;;;22.63;36.85
58243;BME280;50118;53.232;8.252;2022-09-03T09:59:08;101391.84;;;24.15;34.84
58243;BME280;50118;53.232;8.252;2022-09-03T10:01:37;101394.19;;;24.11;34.03
58243;BME280;50118;53.232;8.252;2022-09-03T10:04:14;101400.91;;;23.63;35.03
58243;BME280;50118;53.232;8.252;2022-09-03T10:06:53;101393.44;;;25.05;33.70
58243;BME280;50118;53.232;8.252;2022-09-03T10:17:30;101380.81;;;23.12;35.47
58243;BME280;50118;53.232;8.252;2022-09-03T10:23:17;101391.94;;;23.49;35.01
58243;BME280;50118;53.232;8.252;2022-09-03T10:26:07;101381.13;;;23.43;35.06
58243;BME280;50118;53.232;8.252;2022-09-03T10:28:38;101379.50;;;24.12;34.64
58243;BME280;50118;53.232;8.252;2022-09-03T10:34:13;101370.84;;;25.16;32.12
58243;BME280;50118;53.232;8.252;2022-09-03T10:53:25;101343.88;;;26.71;28.96
58243;BME280;50118;53.232;8.252;2022-09-03T10:58:43;101347.00;;;26.63;28.68
58243;BME280;50118;53.232;8.252;2022-09-03T11:06:29;101340.38;;;27.11;27.49
58243;BME280;50118;53.232;8.252;2022-09-03T11:09:00;101329.38;;;26.82;28.06
58243;BME280;50118;53.232;8.252;2022-09-03T11:11:36;101346.34;;;26.84;27.77
58243;BME280;50118;53.232;8.252;2022-09-03T11:14:12;101338.75;;;26.39;28.32
58243;BME280;50118;53.232;8.252;2022-09-03T11:16:47;101340.44;;;25.98;29.48
58243;BME280;50118;53.232;8.252;2022-09-03T11:19:19;101340.28;;;25.32;29.77
58243;BME280;50118;53.232;8.252;2022-09-03T11:21:50;101336.03;;;25.37;30.30
58243;BME280;50118;53.232;8.252;2022-09-03T11:24:22;101329.19;;;24.72;30.79
58243;BME280;50118;53.232;8.252;2022-09-03T11:27:04;101331.47;;;25.49;30.12
58243;BME280;50118;53.232;8.252;2022-09-03T11:29:52;101328.47;;;25.99;29.10
58243;BME280;50118;53.232;8.252;2022-09-03T11:35:15;101313.47;;;25.29;30.70
58243;BME280;50118;53.232;8.252;2022-09-03T11:37:58;101328.28;;;26.24;29.80
58243;BME280;50118;53.232;8.252;2022-09-03T11:40:32;101320.47;;;26.52;28.03
58243;BME280;50118;53.232;8.252;2022-09-03T11:48:41;101331.84;;;26.37;28.62
58243;BME280;50118;53.232;8.252;2022-09-03T11:56:27;101313.44;;;24.30;31.67
58243;BME280;50118;53.232;8.252;2022-09-03T12:01:39;101307.44;;;25.27;30.71
58243;BME280;50118;53.232;8.252;2022-09-03T12:04:07;101314.34;;;26.02;30.21
58243;BME280;50118;53.232;8.252;2022-09-03T12:12:42;101315.00;;;25.07;30.36
58243;BME280;50118;53.232;8.252;2022-09-03T12:17:58;101312.00;;;25.76;30.52
58243;BME280;50118;53.232;8.252;2022-09-03T12:23:49;101301.69;;;26.43;29.06
58243;BME280;50118;53.232;8.252;2022-09-03T12:26:23;101299.28;;;26.12;29.04
58243;BME280;50118;53.232;8.252;2022-09-03T12:28:52;101299.25;;;25.09;30.76
58243;BME280;50118;53.232;8.252;2022-09-03T12:31:20;101287.91;;;25.72;30.19
58243;BME280;50118;53.232;8.252;2022-09-03T12:33:50;101291.66;;;24.92;31.35
58243;BME280;50118;53.232;8.252;2022-09-03T12:36:16;101309.31;;;24.46;32.00
58243;BME280;50118;53.232;8.252;2022-09-03T12:38:42;101292.97;;;24.90;30.84
58243;BME280;50118;53.232;8.252;2022-09-03T12:41:25;101290.78;;;24.11;32.26
58243;BME280;50118;53.232;8.252;2022-09-03T12:43:56;101300.81;;;23.79;33.35
58243;BME280;50118;53.232;8.252;2022-09-03T12:46:26;101302.69;;;24.10;32.63
58243;BME280;50118;53.232;8.252;2022-09-03T12:48:56;101287.41;;;24.09;32.41
58243;BME280;50118;53.232;8.252;2022-09-03T12:51:30;101286.81;;;25.13;31.54
58243;BME280;50118;53.232;8.252;2022-09-03T12:53:56;101281.88;;;25.40;30.83
58243;BME280;50118;53.232;8.252;2022-09-03T12:56:22;101273.66;;;25.70;29.86
58243;BME280;50118;53.232;8.252;2022-09-03T12:58:55;101270.53;;;25.06;31.37
58243;BME280;50118;53.232;8.252;2022-09-03T13:01:29;101280.00;;;25.41;30.56
58243;BME280;50118;53.232;8.252;2022-09-03T13:04:07;101274.25;;;24.75;31.43
58243;BME280;50118;53.232;8.252;2022-09-03T13:06:47;101266.69;;;24.77;31.28
58243;BME280;50118;53.232;8.252;2022-09-03T13:09:17;101263.97;;;24.58;32.20
58243;BME280;50118;53.232;8.252;2022-09-03T13:11:46;101276.25;;;24.86;31.51
58243;BME280;50118;53.232;8.252;2022-09-03T13:14:13;101272.88;;;23.97;32.88
58243;BME280;50118;53.232;8.252;2022-09-03T13:19:39;101255.25;;;24.06;32.85
58243;BME280;50118;53.232;8.252;2022-09-03T13:25:12;101264.56;;;24.79;31.56
58243;BME280;50118;53.232;8.252;2022-09-03T13:27:53;101270.59;;;24.44;32.57
58243;BME280;50118;53.232;8.252;2022-09-03T13:30:30;101253.63;;;23.98;32.59
58243;BME280;50118;53.232;8.252;2022-09-03T13:33:14;101255.28;;;24.87;31.73
58243;BME280;50118;53.232;8.252;2022-09-03T13:35:50;101249.78;;;24.50;32.36
58243;BME280;50118;53.232;8.252;2022-09-03T13:40:57;101246.34;;;24.79;32.22
58243;BME280;50118;53.232;8.252;2022-09-03T13:43:44;101251.06;;;24.03;32.89
58243;BME280;50118;53.232;8.252;2022-09-03T13:46:16;101249.84;;;23.99;32.99
58243;BME280;50118;53.232;8.252;2022-09-03T13:48:46;101251.38;;;23.57;34.01
58243;BME280;50118;53.232;8.252;2022-09-03T13:51:43;101252.09;;;23.77;33.35
58243;BME280;50118;53.232;8.252;2022-09-03T13:57:32;101246.63;;;23.45;34.00
58243;BME280;50118;53.232;8.252;2022-09-03T14:00:06;101237.72;;;23.95;33.44
58243;BME280;50118;53.232;8.252;2022-09-03T14:02:53;101249.88;;;23.61;33.80
58243;BME280;50118;53.232;8.252;2022-09-03T14:08:34;101238.13;;;23.35;34.31
58243;BME280;50118;53.232;8.252;2022-09-03T14:22:51;101232.50;;;23.94;33.43
58243;BME280;50118;53.232;8.252;2022-09-03T14:25:21;101242.84;;;23.78;33.83
58243;BME280;50118;53.232;8.252;2022-09-03T14:27:47;101237.41;;;23.85;33.15
58243;BME280;50118;53.232;8.252;2022-09-03T14:36:20;101225.69;;;23.84;34.22
58243;BME280;50118;53.232;8.252;2022-09-03T14:41:57;101232.69;;;23.35;34.24
58243;BME280;50118;53.232;8.252;2022-09-03T14:50:12;101221.50;;;24.07;32.74
58243;BME280;50118;53.232;8.252;2022-09-03T14:55:53;101224.88;;;23.84;33.49
58243;BME280;50118;53.232;8.252;2022-09-03T15:01:34;101213.94;;;23.59;33.59
58243;BME280;50118;53.232;8.252;2022-09-03T15:04:09;101214.19;;;23.50;33.64
58243;BME280;50118;53.232;8.252;2022-09-03T15:23:13;101223.69;;;23.41;33.89
58243;BME280;50118;53.232;8.252;2022-09-03T15:26:09;101220.84;;;23.55;34.05
58243;BME280;50118;53.232;8.252;2022-09-03T15:36:50;101219.63;;;23.50;33.68
58243;BME280;50118;53.232;8.252;2022-09-03T15:39:27;101220.50;;;23.44;33.64
58243;BME280;50118;53.232;8.252;2022-09-03T15:42:05;101223.56;;;23.55;33.35
58243;BME280;50118;53.232;8.252;2022-09-03T15:44:50;101227.59;;;23.45;33.84
58243;BME280;50118;53.232;8.252;2022-09-03T15:47:36;101225.88;;;23.51;33.20
58243;BME280;50118;53.232;8.252;2022-09-03T15:50:28;101227.53;;;23.59;33.29
58243;BME280;50118;53.232;8.252;2022-09-03T15:53:30;101229.28;;;23.46;34.02
58243;BME280;50118;53.232;8.252;2022-09-03T15:56:13;101235.53;;;23.02;34.97
58243;BME280;50118;53.232;8.252;2022-09-03T15:58:58;101223.03;;;23.07;34.55
58243;BME280;50118;53.232;8.252;2022-09-03T16:01:33;101233.69;;;23.02;35.30
58243;BME280;50118;53.232;8.252;2022-09-03T16:04:21;101234.75;;;22.88;35.70
58243;BME280;50118;53.232;8.252;2022-09-03T16:06:57;101244.19;;;22.85;35.20
58243;BME280;50118;53.232;8.252;2022-09-03T16:12:13;101239.00;;;22.77;35.19
58243;BME280;50118;53.232;8.252;2022-09-03T16:14:54;101247.97;;;22.71;35.41
58243;BME280;50118;53.232;8.252;2022-09-03T16:17:35;101248.84;;;22.71;35.56
58243;BME280;50118;53.232;8.252;2022-09-03T16:25:33;101245.31;;;22.57;35.88
58243;BME280;50118;53.232;8.252;2022-09-03T16:36:14;101257.88;;;22.32;36.31
58243;BME280;50118;53.232;8.252;2022-09-03T16:41:28;101249.31;;;21.95;37.17
58243;BME280;50118;53.232;8.252;2022-09-03T16:44:20;101249.31;;;22.01;37.52
58243;BME280;50118;53.232;8.252;2022-09-03T16:47:19;101250.56;;;22.06;36.62
58243;BME280;50118;53.232;8.252;2022-09-03T16:52:41;101262.03;;;22.01;37.29
58243;BME280;50118;53.232;8.252;2022-09-03T17:09:22;101262.66;;;21.76;38.54
58243;BME280;50118;53.232;8.252;2022-09-03T17:12:15;101265.56;;;21.75;38.45
58243;BME280;50118;53.232;8.252;2022-09-03T17:17:48;101261.16;;;21.60;38.63
58243;BME280;50118;53.232;8.252;2022-09-03T17:36:51;101268.91;;;21.08;40.41
58243;BME280;50118;53.232;8.252;2022-09-03T17:42:01;101273.34;;;20.81;41.17
58243;BME280;50118;53.232;8.252;2022-09-03T17:49:51;101281.16;;;20.63;41.57
58243;BME280;50118;53.232;8.252;2022-09-03T17:52:37;101279.19;;;20.50;42.05
58243;BME280;50118;53.232;8.252;2022-09-03T17:55:28;101289.25;;;20.34;42.05
58243;BME280;50118;53.232;8.252;2022-09-03T17:58:42;101287.78;;;20.32;42.02
58243;BME280;50118;53.232;8.252;2022-09-03T18:04:33;101298.69;;;20.17;42.36
58243;BME280;50118;53.232;8.252;2022-09-03T18:10:25;101307.84;;;19.94;42.88
58243;BME280;50118;53.232;8.252;2022-09-03T18:13:10;101312.09;;;19.82;43.63